Besuchen Sie unsere anderen Wetter Stationen:

Template documentation
and downloads

And another site



METAR-Meldungen aus der Umgebung

   
EHVK - Volkel Rnlafb, Netherlands
Entfernung von der Station bis: SW 18 km
Aktualisierung: 07-12-2019 18:25
Bewölkt  
Bewölkt  
   Wind: SW 18.5 km/h
Wind: SW 18.5 km/h
Temperatur: 9°C
Gefühlt: 6°C
Taupunkt: 6°C
Luftfeuchte: 82%
Luftdruck: 1014 hPa
Bewölkt: Bewölkt
Sichtbarkeit: More than 10 km
Bewölkung: Bewölkt 1158.2 m
EHVK 071725Z AUTO 22010KT 9999 OVC038 09/06 Q1014 BLU
EDLV - Niederrhein, Germany
Entfernung von der Station bis: SO 25 km
Aktualisierung: 07-12-2019 18:20
Stark bewölkt  
Stark bewölkt  
   Wind: SW 16.7 km/h
Wind: SW 16.7 km/h
Temperatur: 9°C
Gefühlt: 7°C
Taupunkt: 6°C
Luftfeuchte: 82%
Luftdruck: 1014 hPa
Bewölkt: Stark bewölkt
Sichtbarkeit: More than 10 km
Bewölkung: Stark bewölkt 1249.7 m
EDLV 071720Z 22009KT 9999 BKN041 09/06 Q1014
EHDL - Deelen Rnlafb, Netherlands
Entfernung von der Station bis: N 35 km
Aktualisierung: 07-12-2019 18:25
Bewölkt  
Bewölkt  
   Wind: SW 18.5 km/h
Wind: SW 18.5 km/h
Temperatur: 9°C
Gefühlt: 6°C
Taupunkt: 6°C
Luftfeuchte: 82%
Luftdruck: 1013 hPa
Bewölkt: Bewölkt
Sichtbarkeit: More than 10 km
Bewölkung: Bewölkt 1188.7 m
EHDL 071725Z AUTO 23010KT 180V270 9999 OVC039 09/06 Q1013 BLU
EHEH - Eindhoven Rnlafb, Netherlands
Entfernung von der Station bis: SW 48 km
Aktualisierung: 07-12-2019 18:25
Bewölkt  
Bewölkt  
   Wind: SW 18.5 km/h
Wind: SW 18.5 km/h
Temperatur: 9°C
Gefühlt: 6°C
Taupunkt: 5°C
Luftfeuchte: 76%
Luftdruck: 1014 hPa
Bewölkt: Bewölkt
Sichtbarkeit: More than 10 km
Bewölkung: Bewölkt 1188.7 m
EHEH 071725Z AUTO 22010KT 180V250 9999 OVC039 09/05 Q1014 BLU 22010KT 9999 BKN035
EHGR - Gilze-Rijen Rnla, Netherlands
Entfernung von der Station bis: WSW 70 km
Aktualisierung: 07-12-2019 18:25
Bewölkt  
Bewölkt  
   Wind: SSW 11.1 km/h
Wind: SSW 11.1 km/h
Temperatur: 9°C
Gefühlt: 7°C
Taupunkt: 5°C
Luftfeuchte: 76%
Luftdruck: 1014 hPa
Bewölkt: Bewölkt
Sichtbarkeit: More than 10 km
Bewölkung: Bewölkt 1188.7 m
EHGR 071725Z AUTO 21006KT 190V250 9999 OVC039 09/05 Q1014 BLU
EBBL - Kleine-Brogel(Ba, Belgium
Entfernung von der Station bis: SSW 71 km
Aktualisierung: 07-12-2019 18:25
Bewölkt  
Bewölkt  
   Wind: SW 14.8 km/h
Wind: SW 14.8 km/h
Temperatur: 9°C
Gefühlt: 7°C
Taupunkt: 5°C
Luftfeuchte: 76%
Luftdruck: 1015 hPa
Bewölkt: Bewölkt
Sichtbarkeit: More than 10 km
Bewölkung: Bewölkt 1341.1 m
EBBL 071725Z AUTO 23008KT 9999 OVC044/// 09/05 Q1015 BLU

Script entwickelt von  Saratoga-weather.org Angepasst für das Template von  Weerstation Leuven

Sie finden unser Wetter-Infos auch auf:

netzwerkwettercom

European Weather Network

WeatherCloud

Weather Underground

AWEKAS

Citizen Weather Observer Program (CWOP)

HAMweather, WeatherForYou, PWS Weather

Von uns verwendete Ausrüstung:

Wetterstation
Davis VP2

Davis VP2